Cooperstown, Kentucky
Current Conditions -  °F | °C
As of 8:35 AM on Friday 28 Nov 2014 (Local Time) from KM91 Reporting Station
Clear Clear  
Wind Chill: 23°   Ceiling: Unl
Heat Index: 30°   Visibility: 10mi
Dew Point: 25°   Wind: 7mph
Humidity: 80%   Direction: 170°S
Pressure: 30.41"   Gusts: NA
Location:  36.8547°N, 86.8859°W
Report Text: KM91 281435Z AUTO 17006KT 10SM CLR M01/M04 A3041 RMK
Loading
Personal Weather Stations






























Interactive Weather Map New forecast layout! Learn more

10-Day Weather Forecast

Advertisements
Track Severe Weather on mobile